Mesa Vista, California
Current Conditions -  °F | °C
As of 12:53 PM on Friday 24 Oct 2014 (Local Time) from KTVL Reporting Station
Clear Clear  
Wind Chill: 70°   Ceiling: Unl
Heat Index: 70°   Visibility: 10mi
Dew Point: 17°   Wind: 21mph
Humidity: 13%   Direction: 190°S
Pressure: 30.1"   Gusts: 35mph
Location:  38.6924°N, 119.835°W
Report Text: KTVL 241953Z AUTO 19018G30KT 10SM CLR 21/M08 A3010 RMK AO2 PK WND 19030/1953 SLP149 T02111083
Loading
Personal Weather Stations






























Interactive Weather Map
Tropical Storm Tracking
New forecast layout! Learn more

10-Day Weather Forecast

Advertisements
Track Severe Weather on mobile